METAR Data
IDs: Format: Raw Decoded Include TAF

Data at: 1235 UTC 17 Aug 2019

LTAF 171220Z 21011KT 9999 SCT035 34/24 Q1004 NOSIG RMK RWY23 21012KT 180V240